Amado Nervo National Airport
MMEP : now visible

Airfield :











YOU CAN JOIN US ON...

 
LOGIN :

Register | Disclaimer

   EN    FR    IT 

 









Legend :    VFR   Marginal VFR   IFR   Intensive IFR   Very Intensive IFR
Visi :
Ceiling :
>= 8 km
>= 3000ft
5 to 8 km
1000 to 3000 ft
1500m to 5 km
500 to 1000 ft
800 to 1500m
200 to 500 ft
< 800m
< 200 ft
Symbols :   Thunderstorms  Fog  Heavy snow  Heavy precipitations  Wind > 20 kt






- Airport Elevation : 3020 ft
- IATA code : TPQ


MMEP - Amado Nervo National

CURRENT METAR :
  • 191951Z 18012KT 8SM SCT020CB BKN100 25/21 A3008 RMK 8/360 LWR VSBY S PCPN

EXPIRED METARs :
  • 191846Z 36006KT 10SM SCT025TCU 30/22 A3008 RMK 8/200
  • 191740Z 18003KT 10SM SCT025 29/21 A3010 RMK SLP147 57008 955 8/100 DSNT TCU E SE
  • 191647Z 11004KT 10SM SCT025 28/20 A3010 RMK 8/100
  • 191544Z 09006KT 10SM FEW120 FEW250 27/22 A3011 RMK 8/031 CU W

TAF TAF MMEP
Valid from the 19 at 18:00 until the 20 at 18:00 UTC


191727Z 1918/2018 11005KT P6SM SCT025 SCT250
FM192100 36012KT P6SM VCRA SCT020CB
TEMPO 1922/2002 4SM TSRA BKN020CB
FM200300 32005KT P6SM -RA BKN020 BKN080
FM200800 00000KT 5SM HZ BKN015
TEMPO 2011/2015 3SM BR BKN010
MMFR FIR / North America



MET'MAP, your aeronautical weather chart ! - Copyright ORBIFLY December 2007 - Disclaimer

ORBIFLY MET'MAP TEAM :

Programming & Development : Alexandra Zaïnal
Original concept : Baudouin d'Aumeries
Technical & hardware support : Manuel Goepfert
Assistance : Marc-Olivier Méhu




SOURCES & CREDITS :

   NOAA       Earth
Advisory